sensor_id;sensor_type;location;lat;lon;timestamp;P1;durP1;ratioP1;P2;durP2;ratioP2
22490;SDS011;11412;50.802;4.350;2023-08-01T00:00:25;1.40;;;1.30;;
22490;SDS011;11412;50.802;4.350;2023-08-01T00:02:50;1.80;;;1.70;;
22490;SDS011;11412;50.802;4.350;2023-08-01T00:05:16;1.33;;;1.33;;
22490;SDS011;11412;50.802;4.350;2023-08-01T00:07:42;1.30;;;1.20;;
22490;SDS011;11412;50.802;4.350;2023-08-01T00:10:08;1.80;;;1.52;;
22490;SDS011;11412;50.802;4.350;2023-08-01T00:12:34;2.65;;;1.73;;
22490;SDS011;11412;50.802;4.350;2023-08-01T00:14:59;1.20;;;1.20;;
22490;SDS011;11412;50.802;4.350;2023-08-01T00:17:26;1.40;;;1.30;;
22490;SDS011;11412;50.802;4.350;2023-08-01T00:19:51;1.95;;;1.52;;
22490;SDS011;11412;50.802;4.350;2023-08-01T00:22:17;2.15;;;1.95;;
22490;SDS011;11412;50.802;4.350;2023-08-01T00:24:43;1.40;;;1.30;;
22490;SDS011;11412;50.802;4.350;2023-08-01T00:27:08;2.60;;;1.50;;
22490;SDS011;11412;50.802;4.350;2023-08-01T00:29:35;1.77;;;1.67;;
22490;SDS011;11412;50.802;4.350;2023-08-01T00:32:01;1.50;;;1.40;;
22490;SDS011;11412;50.802;4.350;2023-08-01T00:34:27;1.60;;;1.50;;
22490;SDS011;11412;50.802;4.350;2023-08-01T00:36:53;2.75;;;1.58;;
22490;SDS011;11412;50.802;4.350;2023-08-01T00:39:18;2.60;;;1.35;;
22490;SDS011;11412;50.802;4.350;2023-08-01T00:41:44;1.80;;;1.55;;
22490;SDS011;11412;50.802;4.350;2023-08-01T00:44:09;4.68;;;2.20;;
22490;SDS011;11412;50.802;4.350;2023-08-01T00:46:35;1.55;;;1.45;;
22490;SDS011;11412;50.802;4.350;2023-08-01T00:49:02;1.88;;;1.70;;
22490;SDS011;11412;50.802;4.350;2023-08-01T00:51:28;3.03;;;1.98;;
22490;SDS011;11412;50.802;4.350;2023-08-01T00:53:55;1.95;;;1.67;;
22490;SDS011;11412;50.802;4.350;2023-08-01T00:56:21;1.67;;;1.58;;
22490;SDS011;11412;50.802;4.350;2023-08-01T00:58:47;4.28;;;1.80;;
22490;SDS011;11412;50.802;4.350;2023-08-01T01:01:14;2.67;;;1.75;;
22490;SDS011;11412;50.802;4.350;2023-08-01T01:03:39;3.55;;;2.03;;
22490;SDS011;11412;50.802;4.350;2023-08-01T01:08:49;4.43;;;2.63;;
22490;SDS011;11412;50.802;4.350;2023-08-01T01:11:15;3.63;;;2.03;;
22490;SDS011;11412;50.802;4.350;2023-08-01T01:13:40;3.25;;;2.17;;
22490;SDS011;11412;50.802;4.350;2023-08-01T01:16:06;5.00;;;2.33;;
22490;SDS011;11412;50.802;4.350;2023-08-01T01:18:32;3.42;;;2.42;;
22490;SDS011;11412;50.802;4.350;2023-08-01T01:20:58;3.65;;;2.35;;
22490;SDS011;11412;50.802;4.350;2023-08-01T01:23:24;4.03;;;2.55;;
22490;SDS011;11412;50.802;4.350;2023-08-01T01:25:51;3.33;;;2.28;;
22490;SDS011;11412;50.802;4.350;2023-08-01T01:28:19;3.20;;;2.28;;
22490;SDS011;11412;50.802;4.350;2023-08-01T01:30:46;4.20;;;2.72;;
22490;SDS011;11412;50.802;4.350;2023-08-01T01:33:14;7.05;;;2.22;;
22490;SDS011;11412;50.802;4.350;2023-08-01T01:35:41;6.18;;;2.70;;
22490;SDS011;11412;50.802;4.350;2023-08-01T01:38:06;2.97;;;2.22;;
22490;SDS011;11412;50.802;4.350;2023-08-01T01:40:33;5.32;;;2.42;;
22490;SDS011;11412;50.802;4.350;2023-08-01T01:42:59;3.30;;;2.40;;
22490;SDS011;11412;50.802;4.350;2023-08-01T01:45:25;4.65;;;3.30;;
22490;SDS011;11412;50.802;4.350;2023-08-01T01:47:52;3.33;;;2.70;;
22490;SDS011;11412;50.802;4.350;2023-08-01T01:50:17;4.72;;;2.78;;
22490;SDS011;11412;50.802;4.350;2023-08-01T01:52:43;5.25;;;2.80;;
22490;SDS011;11412;50.802;4.350;2023-08-01T01:55:09;5.40;;;2.67;;
22490;SDS011;11412;50.802;4.350;2023-08-01T01:57:35;4.00;;;2.47;;
22490;SDS011;11412;50.802;4.350;2023-08-01T02:00:05;5.38;;;2.80;;
22490;SDS011;11412;50.802;4.350;2023-08-01T02:02:35;5.63;;;3.30;;
22490;SDS011;11412;50.802;4.350;2023-08-01T02:05:01;5.80;;;3.20;;
22490;SDS011;11412;50.802;4.350;2023-08-01T02:07:29;6.35;;;3.00;;
22490;SDS011;11412;50.802;4.350;2023-08-01T02:09:54;6.28;;;3.08;;
22490;SDS011;11412;50.802;4.350;2023-08-01T02:12:20;5.68;;;3.10;;
22490;SDS011;11412;50.802;4.350;2023-08-01T02:14:46;4.97;;;3.38;;
22490;SDS011;11412;50.802;4.350;2023-08-01T02:17:12;6.70;;;2.88;;
22490;SDS011;11412;50.802;4.350;2023-08-01T02:19:38;6.55;;;3.55;;
22490;SDS011;11412;50.802;4.350;2023-08-01T02:22:03;5.47;;;3.25;;
22490;SDS011;11412;50.802;4.350;2023-08-01T02:24:29;5.57;;;3.30;;
22490;SDS011;11412;50.802;4.350;2023-08-01T02:26:55;7.18;;;3.65;;
22490;SDS011;11412;50.802;4.350;2023-08-01T02:29:20;6.18;;;3.70;;
22490;SDS011;11412;50.802;4.350;2023-08-01T02:31:46;8.50;;;3.70;;
22490;SDS011;11412;50.802;4.350;2023-08-01T02:34:12;9.27;;;4.03;;
22490;SDS011;11412;50.802;4.350;2023-08-01T02:36:37;5.70;;;3.90;;
22490;SDS011;11412;50.802;4.350;2023-08-01T02:39:05;6.57;;;3.88;;
22490;SDS011;11412;50.802;4.350;2023-08-01T02:41:31;5.85;;;3.88;;
22490;SDS011;11412;50.802;4.350;2023-08-01T02:43:57;6.38;;;3.95;;
22490;SDS011;11412;50.802;4.350;2023-08-01T02:46:23;8.85;;;4.50;;
22490;SDS011;11412;50.802;4.350;2023-08-01T02:48:49;9.88;;;4.70;;
22490;SDS011;11412;50.802;4.350;2023-08-01T02:51:14;10.77;;;4.50;;
22490;SDS011;11412;50.802;4.350;2023-08-01T02:53:40;11.05;;;4.47;;
22490;SDS011;11412;50.802;4.350;2023-08-01T02:56:06;11.40;;;4.72;;
22490;SDS011;11412;50.802;4.350;2023-08-01T02:58:34;9.82;;;4.00;;
22490;SDS011;11412;50.802;4.350;2023-08-01T03:01:01;11.32;;;4.85;;
22490;SDS011;11412;50.802;4.350;2023-08-01T03:03:32;6.03;;;4.05;;
22490;SDS011;11412;50.802;4.350;2023-08-01T03:05:57;6.72;;;4.18;;
22490;SDS011;11412;50.802;4.350;2023-08-01T03:08:25;8.20;;;4.50;;
22490;SDS011;11412;50.802;4.350;2023-08-01T03:10:53;11.30;;;4.22;;
22490;SDS011;11412;50.802;4.350;2023-08-01T03:13:19;7.30;;;4.22;;
22490;SDS011;11412;50.802;4.350;2023-08-01T03:15:44;9.45;;;4.82;;
22490;SDS011;11412;50.802;4.350;2023-08-01T03:18:10;8.88;;;4.45;;
22490;SDS011;11412;50.802;4.350;2023-08-01T03:20:36;6.03;;;4.78;;
22490;SDS011;11412;50.802;4.350;2023-08-01T03:23:01;7.97;;;4.25;;
22490;SDS011;11412;50.802;4.350;2023-08-01T03:25:27;9.60;;;4.53;;
22490;SDS011;11412;50.802;4.350;2023-08-01T03:27:53;11.23;;;4.43;;
22490;SDS011;11412;50.802;4.350;2023-08-01T03:30:20;9.82;;;4.65;;
22490;SDS011;11412;50.802;4.350;2023-08-01T03:32:46;9.90;;;4.53;;
22490;SDS011;11412;50.802;4.350;2023-08-01T03:35:13;9.30;;;4.47;;
22490;SDS011;11412;50.802;4.350;2023-08-01T03:37:39;8.27;;;4.22;;
22490;SDS011;11412;50.802;4.350;2023-08-01T03:40:05;10.35;;;5.10;;
22490;SDS011;11412;50.802;4.350;2023-08-01T03:42:34;10.82;;;4.80;;
22490;SDS011;11412;50.802;4.350;2023-08-01T03:45:00;8.50;;;4.78;;
22490;SDS011;11412;50.802;4.350;2023-08-01T03:47:26;9.32;;;5.22;;
22490;SDS011;11412;50.802;4.350;2023-08-01T03:49:52;7.78;;;4.78;;
22490;SDS011;11412;50.802;4.350;2023-08-01T03:52:17;9.68;;;5.03;;
22490;SDS011;11412;50.802;4.350;2023-08-01T03:54:44;11.00;;;5.32;;
22490;SDS011;11412;50.802;4.350;2023-08-01T03:57:11;11.32;;;5.03;;
22490;SDS011;11412;50.802;4.350;2023-08-01T03:59:37;11.70;;;5.25;;
22490;SDS011;11412;50.802;4.350;2023-08-01T04:02:02;10.10;;;4.90;;
22490;SDS011;11412;50.802;4.350;2023-08-01T04:04:28;11.25;;;5.20;;
22490;SDS011;11412;50.802;4.350;2023-08-01T04:06:56;10.30;;;4.60;;
22490;SDS011;11412;50.802;4.350;2023-08-01T04:09:21;11.07;;;4.63;;
22490;SDS011;11412;50.802;4.350;2023-08-01T04:11:47;15.43;;;5.85;;
22490;SDS011;11412;50.802;4.350;2023-08-01T04:14:13;11.90;;;5.63;;
22490;SDS011;11412;50.802;4.350;2023-08-01T04:16:39;12.25;;;5.53;;
22490;SDS011;11412;50.802;4.350;2023-08-01T04:19:05;11.52;;;5.22;;
22490;SDS011;11412;50.802;4.350;2023-08-01T04:21:30;9.05;;;5.00;;
22490;SDS011;11412;50.802;4.350;2023-08-01T04:23:56;11.43;;;5.00;;
22490;SDS011;11412;50.802;4.350;2023-08-01T04:26:22;9.13;;;4.78;;
22490;SDS011;11412;50.802;4.350;2023-08-01T04:28:47;9.82;;;5.20;;
22490;SDS011;11412;50.802;4.350;2023-08-01T04:31:13;12.45;;;5.10;;
22490;SDS011;11412;50.802;4.350;2023-08-01T04:33:39;10.90;;;5.20;;
22490;SDS011;11412;50.802;4.350;2023-08-01T04:36:05;10.45;;;5.38;;
22490;SDS011;11412;50.802;4.350;2023-08-01T04:38:31;9.35;;;4.95;;
22490;SDS011;11412;50.802;4.350;2023-08-01T04:40:57;10.93;;;5.72;;
22490;SDS011;11412;50.802;4.350;2023-08-01T04:43:22;14.25;;;5.68;;
22490;SDS011;11412;50.802;4.350;2023-08-01T04:45:48;9.55;;;5.40;;
22490;SDS011;11412;50.802;4.350;2023-08-01T04:48:13;10.27;;;4.88;;
22490;SDS011;11412;50.802;4.350;2023-08-01T04:50:39;13.57;;;5.55;;
22490;SDS011;11412;50.802;4.350;2023-08-01T04:53:05;12.20;;;5.15;;
22490;SDS011;11412;50.802;4.350;2023-08-01T04:55:31;10.55;;;5.32;;
22490;SDS011;11412;50.802;4.350;2023-08-01T04:57:57;13.38;;;6.47;;
22490;SDS011;11412;50.802;4.350;2023-08-01T05:00:22;11.38;;;6.28;;
22490;SDS011;11412;50.802;4.350;2023-08-01T05:02:48;12.93;;;5.80;;
22490;SDS011;11412;50.802;4.350;2023-08-01T05:05:14;9.85;;;5.18;;
22490;SDS011;11412;50.802;4.350;2023-08-01T05:07:41;13.00;;;5.05;;
22490;SDS011;11412;50.802;4.350;2023-08-01T05:10:07;11.40;;;5.70;;
22490;SDS011;11412;50.802;4.350;2023-08-01T05:12:33;9.73;;;5.07;;
22490;SDS011;11412;50.802;4.350;2023-08-01T05:14:58;16.50;;;5.43;;
22490;SDS011;11412;50.802;4.350;2023-08-01T05:17:24;9.95;;;5.20;;
22490;SDS011;11412;50.802;4.350;2023-08-01T05:19:50;12.88;;;6.03;;
22490;SDS011;11412;50.802;4.350;2023-08-01T05:22:16;11.35;;;5.15;;
22490;SDS011;11412;50.802;4.350;2023-08-01T05:24:41;12.73;;;5.03;;
22490;SDS011;11412;50.802;4.350;2023-08-01T05:27:07;13.27;;;5.57;;
22490;SDS011;11412;50.802;4.350;2023-08-01T05:29:32;11.23;;;4.72;;
22490;SDS011;11412;50.802;4.350;2023-08-01T05:31:58;16.42;;;5.35;;
22490;SDS011;11412;50.802;4.350;2023-08-01T05:34:24;10.43;;;5.32;;
22490;SDS011;11412;50.802;4.350;2023-08-01T05:36:49;10.80;;;5.47;;
22490;SDS011;11412;50.802;4.350;2023-08-01T05:39:15;13.00;;;5.03;;
22490;SDS011;11412;50.802;4.350;2023-08-01T05:41:42;11.82;;;5.30;;
22490;SDS011;11412;50.802;4.350;2023-08-01T05:44:08;15.48;;;5.47;;
22490;SDS011;11412;50.802;4.350;2023-08-01T05:46:34;9.45;;;5.13;;
22490;SDS011;11412;50.802;4.350;2023-08-01T05:49:00;10.18;;;5.57;;
22490;SDS011;11412;50.802;4.350;2023-08-01T05:51:25;15.07;;;5.43;;
22490;SDS011;11412;50.802;4.350;2023-08-01T05:53:51;12.95;;;5.15;;
22490;SDS011;11412;50.802;4.350;2023-08-01T05:56:17;11.57;;;5.95;;
22490;SDS011;11412;50.802;4.350;2023-08-01T05:58:42;9.85;;;5.38;;
22490;SDS011;11412;50.802;4.350;2023-08-01T06:01:09;9.68;;;5.32;;
22490;SDS011;11412;50.802;4.350;2023-08-01T06:03:36;14.20;;;5.22;;
22490;SDS011;11412;50.802;4.350;2023-08-01T06:06:03;10.82;;;4.72;;
22490;SDS011;11412;50.802;4.350;2023-08-01T06:08:29;10.27;;;5.55;;
22490;SDS011;11412;50.802;4.350;2023-08-01T06:10:55;12.80;;;5.70;;
22490;SDS011;11412;50.802;4.350;2023-08-01T06:13:20;12.90;;;4.88;;
22490;SDS011;11412;50.802;4.350;2023-08-01T06:15:46;12.23;;;4.70;;
22490;SDS011;11412;50.802;4.350;2023-08-01T06:18:12;9.82;;;4.93;;
22490;SDS011;11412;50.802;4.350;2023-08-01T06:20:37;12.05;;;4.80;;
22490;SDS011;11412;50.802;4.350;2023-08-01T06:23:04;11.50;;;4.90;;
22490;SDS011;11412;50.802;4.350;2023-08-01T06:25:30;10.57;;;5.20;;
22490;SDS011;11412;50.802;4.350;2023-08-01T06:27:55;8.35;;;4.82;;
22490;SDS011;11412;50.802;4.350;2023-08-01T06:30:21;8.82;;;5.25;;
22490;SDS011;11412;50.802;4.350;2023-08-01T06:32:47;11.70;;;4.68;;
22490;SDS011;11412;50.802;4.350;2023-08-01T06:35:12;11.65;;;5.03;;
22490;SDS011;11412;50.802;4.350;2023-08-01T06:37:38;10.20;;;4.78;;
22490;SDS011;11412;50.802;4.350;2023-08-01T06:40:04;13.10;;;5.40;;
22490;SDS011;11412;50.802;4.350;2023-08-01T06:42:31;11.23;;;4.82;;
22490;SDS011;11412;50.802;4.350;2023-08-01T06:44:57;14.52;;;5.15;;
22490;SDS011;11412;50.802;4.350;2023-08-01T06:47:22;10.05;;;5.20;;
22490;SDS011;11412;50.802;4.350;2023-08-01T06:49:48;13.73;;;5.13;;
22490;SDS011;11412;50.802;4.350;2023-08-01T06:52:13;11.95;;;5.10;;
22490;SDS011;11412;50.802;4.350;2023-08-01T06:54:39;9.75;;;5.13;;
22490;SDS011;11412;50.802;4.350;2023-08-01T06:57:06;11.65;;;4.50;;
22490;SDS011;11412;50.802;4.350;2023-08-01T06:59:32;9.93;;;4.82;;
22490;SDS011;11412;50.802;4.350;2023-08-01T07:01:58;10.73;;;4.60;;
22490;SDS011;11412;50.802;4.350;2023-08-01T07:04:23;7.30;;;4.47;;
22490;SDS011;11412;50.802;4.350;2023-08-01T07:06:49;11.80;;;5.50;;
22490;SDS011;11412;50.802;4.350;2023-08-01T07:09:15;11.10;;;5.60;;
22490;SDS011;11412;50.802;4.350;2023-08-01T07:11:40;8.30;;;5.03;;
22490;SDS011;11412;50.802;4.350;2023-08-01T07:14:06;11.07;;;4.88;;
22490;SDS011;11412;50.802;4.350;2023-08-01T07:16:32;11.40;;;4.90;;
22490;SDS011;11412;50.802;4.350;2023-08-01T07:18:59;9.88;;;5.03;;
22490;SDS011;11412;50.802;4.350;2023-08-01T07:21:25;12.13;;;5.10;;
22490;SDS011;11412;50.802;4.350;2023-08-01T07:23:51;11.25;;;4.90;;
22490;SDS011;11412;50.802;4.350;2023-08-01T07:26:17;11.15;;;4.60;;
22490;SDS011;11412;50.802;4.350;2023-08-01T07:28:42;11.05;;;5.53;;
22490;SDS011;11412;50.802;4.350;2023-08-01T07:31:08;10.35;;;4.97;;
22490;SDS011;11412;50.802;4.350;2023-08-01T07:33:34;10.73;;;4.75;;
22490;SDS011;11412;50.802;4.350;2023-08-01T07:36:00;8.98;;;4.95;;
22490;SDS011;11412;50.802;4.350;2023-08-01T07:38:26;9.23;;;4.85;;
22490;SDS011;11412;50.802;4.350;2023-08-01T07:40:52;7.50;;;4.40;;
22490;SDS011;11412;50.802;4.350;2023-08-01T07:43:18;11.20;;;4.32;;
22490;SDS011;11412;50.802;4.350;2023-08-01T07:45:44;11.73;;;4.28;;
22490;SDS011;11412;50.802;4.350;2023-08-01T07:48:10;8.27;;;4.22;;
22490;SDS011;11412;50.802;4.350;2023-08-01T07:50:35;8.00;;;4.13;;
22490;SDS011;11412;50.802;4.350;2023-08-01T07:53:01;7.80;;;4.00;;
22490;SDS011;11412;50.802;4.350;2023-08-01T07:55:27;7.43;;;3.60;;
22490;SDS011;11412;50.802;4.350;2023-08-01T07:57:52;9.40;;;4.22;;
22490;SDS011;11412;50.802;4.350;2023-08-01T08:00:18;7.47;;;3.70;;
22490;SDS011;11412;50.802;4.350;2023-08-01T08:02:44;10.23;;;3.97;;
22490;SDS011;11412;50.802;4.350;2023-08-01T08:05:11;8.00;;;3.70;;
22490;SDS011;11412;50.802;4.350;2023-08-01T08:07:37;6.07;;;3.38;;
22490;SDS011;11412;50.802;4.350;2023-08-01T08:10:03;8.38;;;3.65;;
22490;SDS011;11412;50.802;4.350;2023-08-01T08:12:30;8.65;;;3.53;;
22490;SDS011;11412;50.802;4.350;2023-08-01T08:14:56;5.72;;;3.00;;
22490;SDS011;11412;50.802;4.350;2023-08-01T08:17:21;10.13;;;3.83;;
22490;SDS011;11412;50.802;4.350;2023-08-01T08:19:47;9.65;;;2.92;;
22490;SDS011;11412;50.802;4.350;2023-08-01T08:22:13;5.75;;;2.97;;
22490;SDS011;11412;50.802;4.350;2023-08-01T08:24:38;8.30;;;3.33;;
22490;SDS011;11412;50.802;4.350;2023-08-01T08:27:04;6.13;;;3.28;;
22490;SDS011;11412;50.802;4.350;2023-08-01T08:29:31;6.07;;;2.90;;
22490;SDS011;11412;50.802;4.350;2023-08-01T08:31:57;6.68;;;2.97;;
22490;SDS011;11412;50.802;4.350;2023-08-01T08:34:23;5.55;;;2.65;;
22490;SDS011;11412;50.802;4.350;2023-08-01T08:36:48;3.58;;;2.55;;
22490;SDS011;11412;50.802;4.350;2023-08-01T08:39:17;8.75;;;3.10;;
22490;SDS011;11412;50.802;4.350;2023-08-01T08:41:47;6.00;;;2.65;;
22490;SDS011;11412;50.802;4.350;2023-08-01T08:44:15;4.75;;;2.55;;
22490;SDS011;11412;50.802;4.350;2023-08-01T08:46:42;5.43;;;2.75;;
22490;SDS011;11412;50.802;4.350;2023-08-01T08:49:09;3.63;;;3.10;;
22490;SDS011;11412;50.802;4.350;2023-08-01T08:51:36;6.68;;;2.65;;
22490;SDS011;11412;50.802;4.350;2023-08-01T08:54:03;6.57;;;2.58;;
22490;SDS011;11412;50.802;4.350;2023-08-01T08:56:30;6.47;;;3.03;;
22490;SDS011;11412;50.802;4.350;2023-08-01T08:58:56;7.50;;;3.10;;
22490;SDS011;11412;50.802;4.350;2023-08-01T09:01:22;8.75;;;3.17;;
22490;SDS011;11412;50.802;4.350;2023-08-01T09:03:48;7.45;;;2.95;;
22490;SDS011;11412;50.802;4.350;2023-08-01T09:06:14;8.70;;;2.78;;
22490;SDS011;11412;50.802;4.350;2023-08-01T09:08:44;8.63;;;2.95;;
22490;SDS011;11412;50.802;4.350;2023-08-01T09:11:17;3.33;;;2.35;;
22490;SDS011;11412;50.802;4.350;2023-08-01T09:13:43;8.05;;;2.65;;
22490;SDS011;11412;50.802;4.350;2023-08-01T09:16:09;4.45;;;2.15;;
22490;SDS011;11412;50.802;4.350;2023-08-01T09:18:46;6.07;;;2.30;;
22490;SDS011;11412;50.802;4.350;2023-08-01T09:21:13;3.42;;;1.80;;
22490;SDS011;11412;50.802;4.350;2023-08-01T09:23:38;6.07;;;2.00;;
22490;SDS011;11412;50.802;4.350;2023-08-01T09:26:14;5.82;;;2.45;;
22490;SDS011;11412;50.802;4.350;2023-08-01T09:28:40;3.40;;;1.92;;
22490;SDS011;11412;50.802;4.350;2023-08-01T09:31:06;6.55;;;2.50;;
22490;SDS011;11412;50.802;4.350;2023-08-01T09:33:41;6.93;;;2.50;;
22490;SDS011;11412;50.802;4.350;2023-08-01T09:36:09;5.45;;;2.40;;
22490;SDS011;11412;50.802;4.350;2023-08-01T09:38:35;10.98;;;2.22;;
22490;SDS011;11412;50.802;4.350;2023-08-01T09:41:03;6.82;;;1.90;;
22490;SDS011;11412;50.802;4.350;2023-08-01T09:43:35;8.77;;;2.00;;
22490;SDS011;11412;50.802;4.350;2023-08-01T09:46:02;6.32;;;2.30;;
22490;SDS011;11412;50.802;4.350;2023-08-01T09:48:28;5.30;;;2.50;;
22490;SDS011;11412;50.802;4.350;2023-08-01T09:53:31;7.88;;;2.78;;
22490;SDS011;11412;50.802;4.350;2023-08-01T09:55:58;8.38;;;2.60;;
22490;SDS011;11412;50.802;4.350;2023-08-01T09:58:28;4.45;;;2.10;;
22490;SDS011;11412;50.802;4.350;2023-08-01T10:00:59;5.82;;;2.25;;
22490;SDS011;11412;50.802;4.350;2023-08-01T10:03:27;6.35;;;2.05;;
22490;SDS011;11412;50.802;4.350;2023-08-01T10:05:53;7.38;;;2.60;;
22490;SDS011;11412;50.802;4.350;2023-08-01T10:08:21;5.97;;;2.45;;
22490;SDS011;11412;50.802;4.350;2023-08-01T10:10:48;7.28;;;2.30;;
22490;SDS011;11412;50.802;4.350;2023-08-01T10:13:14;6.82;;;2.33;;
22490;SDS011;11412;50.802;4.350;2023-08-01T10:15:40;4.03;;;1.92;;
22490;SDS011;11412;50.802;4.350;2023-08-01T10:18:07;5.10;;;1.83;;
22490;SDS011;11412;50.802;4.350;2023-08-01T10:20:34;6.65;;;2.30;;
22490;SDS011;11412;50.802;4.350;2023-08-01T10:23:02;4.03;;;1.85;;
22490;SDS011;11412;50.802;4.350;2023-08-01T10:25:29;6.30;;;2.03;;
22490;SDS011;11412;50.802;4.350;2023-08-01T10:28:02;5.57;;;1.95;;
22490;SDS011;11412;50.802;4.350;2023-08-01T10:30:29;5.63;;;2.50;;
22490;SDS011;11412;50.802;4.350;2023-08-01T10:32:55;3.28;;;1.90;;
22490;SDS011;11412;50.802;4.350;2023-08-01T10:40:43;6.80;;;2.15;;
22490;SDS011;11412;50.802;4.350;2023-08-01T10:43:41;4.72;;;1.80;;
22490;SDS011;11412;50.802;4.350;2023-08-01T10:46:01;5.70;;;2.33;;
22490;SDS011;11412;50.802;4.350;2023-08-01T10:48:30;4.93;;;1.95;;
22490;SDS011;11412;50.802;4.350;2023-08-01T10:50:56;5.18;;;1.60;;
22490;SDS011;11412;50.802;4.350;2023-08-01T10:53:22;1.60;;;1.40;;
22490;SDS011;11412;50.802;4.350;2023-08-01T10:55:48;4.57;;;2.00;;
22490;SDS011;11412;50.802;4.350;2023-08-01T10:58:14;7.07;;;2.10;;
22490;SDS011;11412;50.802;4.350;2023-08-01T11:00:43;5.93;;;2.20;;
22490;SDS011;11412;50.802;4.350;2023-08-01T11:03:09;3.67;;;1.73;;
22490;SDS011;11412;50.802;4.350;2023-08-01T11:05:35;3.40;;;1.55;;
22490;SDS011;11412;50.802;4.350;2023-08-01T11:08:01;6.22;;;1.45;;
22490;SDS011;11412;50.802;4.350;2023-08-01T11:10:29;6.00;;;2.38;;
22490;SDS011;11412;50.802;4.350;2023-08-01T11:12:55;3.40;;;1.70;;
22490;SDS011;11412;50.802;4.350;2023-08-01T11:15:22;4.55;;;1.58;;
22490;SDS011;11412;50.802;4.350;2023-08-01T11:17:49;2.00;;;1.60;;
22490;SDS011;11412;50.802;4.350;2023-08-01T11:20:16;6.20;;;1.80;;
22490;SDS011;11412;50.802;4.350;2023-08-01T11:25:34;4.70;;;1.88;;
22490;SDS011;11412;50.802;4.350;2023-08-01T11:28:09;2.38;;;1.35;;
22490;SDS011;11412;50.802;4.350;2023-08-01T11:30:36;3.63;;;1.60;;
22490;SDS011;11412;50.802;4.350;2023-08-01T11:33:12;5.97;;;2.00;;
22490;SDS011;11412;50.802;4.350;2023-08-01T11:35:42;4.82;;;1.42;;
22490;SDS011;11412;50.802;4.350;2023-08-01T11:38:08;6.25;;;2.13;;
22490;SDS011;11412;50.802;4.350;2023-08-01T11:40:34;7.40;;;1.42;;
22490;SDS011;11412;50.802;4.350;2023-08-01T11:42:59;5.03;;;1.55;;
22490;SDS011;11412;50.802;4.350;2023-08-01T11:45:25;3.50;;;1.58;;
22490;SDS011;11412;50.802;4.350;2023-08-01T11:47:51;5.15;;;1.60;;
22490;SDS011;11412;50.802;4.350;2023-08-01T11:50:23;7.40;;;1.40;;
22490;SDS011;11412;50.802;4.350;2023-08-01T11:52:50;6.60;;;1.45;;
22490;SDS011;11412;50.802;4.350;2023-08-01T11:55:20;4.32;;;1.63;;
22490;SDS011;11412;50.802;4.350;2023-08-01T11:57:53;3.17;;;1.40;;
22490;SDS011;11412;50.802;4.350;2023-08-01T12:00:21;4.22;;;1.65;;
22490;SDS011;11412;50.802;4.350;2023-08-01T12:02:48;3.53;;;1.40;;
22490;SDS011;11412;50.802;4.350;2023-08-01T12:05:23;4.80;;;1.63;;
22490;SDS011;11412;50.802;4.350;2023-08-01T12:07:49;2.28;;;1.15;;
22490;SDS011;11412;50.802;4.350;2023-08-01T12:10:15;3.30;;;1.35;;
22490;SDS011;11412;50.802;4.350;2023-08-01T12:12:44;3.55;;;1.27;;
22490;SDS011;11412;50.802;4.350;2023-08-01T12:15:12;4.32;;;1.30;;
22490;SDS011;11412;50.802;4.350;2023-08-01T12:17:39;2.33;;;1.40;;
22490;SDS011;11412;50.802;4.350;2023-08-01T12:20:05;3.45;;;1.30;;
22490;SDS011;11412;50.802;4.350;2023-08-01T12:22:31;3.75;;;1.35;;
22490;SDS011;11412;50.802;4.350;2023-08-01T12:24:57;4.70;;;1.52;;
22490;SDS011;11412;50.802;4.350;2023-08-01T12:27:23;8.27;;;1.95;;
22490;SDS011;11412;50.802;4.350;2023-08-01T12:29:49;7.95;;;1.67;;
22490;SDS011;11412;50.802;4.350;2023-08-01T12:32:14;3.95;;;1.33;;
22490;SDS011;11412;50.802;4.350;2023-08-01T12:34:40;2.60;;;1.48;;
22490;SDS011;11412;50.802;4.350;2023-08-01T12:37:06;2.78;;;1.13;;
22490;SDS011;11412;50.802;4.350;2023-08-01T12:39:32;1.92;;;1.02;;
22490;SDS011;11412;50.802;4.350;2023-08-01T12:41:58;4.60;;;1.20;;
22490;SDS011;11412;50.802;4.350;2023-08-01T12:44:23;6.38;;;1.40;;
22490;SDS011;11412;50.802;4.350;2023-08-01T12:46:49;4.53;;;1.55;;
22490;SDS011;11412;50.802;4.350;2023-08-01T12:49:15;1.40;;;1.20;;
22490;SDS011;11412;50.802;4.350;2023-08-01T12:51:40;4.72;;;1.35;;
22490;SDS011;11412;50.802;4.350;2023-08-01T12:54:06;5.13;;;1.27;;
22490;SDS011;11412;50.802;4.350;2023-08-01T12:56:32;1.95;;;1.23;;
22490;SDS011;11412;50.802;4.350;2023-08-01T12:58:57;4.55;;;1.50;;
22490;SDS011;11412;50.802;4.350;2023-08-01T13:01:23;1.73;;;1.25;;
22490;SDS011;11412;50.802;4.350;2023-08-01T13:03:49;3.55;;;1.27;;
22490;SDS011;11412;50.802;4.350;2023-08-01T13:06:14;1.58;;;1.20;;
22490;SDS011;11412;50.802;4.350;2023-08-01T13:08:40;2.95;;;1.25;;
22490;SDS011;11412;50.802;4.350;2023-08-01T13:11:09;3.85;;;1.30;;
22490;SDS011;11412;50.802;4.350;2023-08-01T13:13:41;4.25;;;1.30;;
22490;SDS011;11412;50.802;4.350;2023-08-01T13:16:07;4.40;;;1.60;;
22490;SDS011;11412;50.802;4.350;2023-08-01T13:18:34;4.07;;;1.27;;
22490;SDS011;11412;50.802;4.350;2023-08-01T13:21:00;3.22;;;1.45;;
22490;SDS011;11412;50.802;4.350;2023-08-01T13:23:26;1.48;;;1.10;;
22490;SDS011;11412;50.802;4.350;2023-08-01T13:25:51;2.60;;;1.52;;
22490;SDS011;11412;50.802;4.350;2023-08-01T13:28:17;6.32;;;1.60;;
22490;SDS011;11412;50.802;4.350;2023-08-01T13:30:43;5.05;;;1.50;;
22490;SDS011;11412;50.802;4.350;2023-08-01T13:33:09;3.78;;;1.83;;
22490;SDS011;11412;50.802;4.350;2023-08-01T13:35:35;4.38;;;1.70;;
22490;SDS011;11412;50.802;4.350;2023-08-01T13:38:01;5.15;;;1.60;;
22490;SDS011;11412;50.802;4.350;2023-08-01T13:40:28;4.57;;;1.83;;
22490;SDS011;11412;50.802;4.350;2023-08-01T13:42:53;3.88;;;1.80;;
22490;SDS011;11412;50.802;4.350;2023-08-01T13:45:19;2.08;;;1.25;;
22490;SDS011;11412;50.802;4.350;2023-08-01T13:47:45;3.97;;;1.60;;
22490;SDS011;11412;50.802;4.350;2023-08-01T13:50:10;6.18;;;1.80;;
22490;SDS011;11412;50.802;4.350;2023-08-01T13:52:36;9.77;;;1.60;;
22490;SDS011;11412;50.802;4.350;2023-08-01T13:55:03;4.03;;;1.45;;
22490;SDS011;11412;50.802;4.350;2023-08-01T13:57:30;7.35;;;2.00;;
22490;SDS011;11412;50.802;4.350;2023-08-01T13:59:56;3.60;;;1.73;;
22490;SDS011;11412;50.802;4.350;2023-08-01T14:02:22;7.10;;;2.20;;
22490;SDS011;11412;50.802;4.350;2023-08-01T14:04:50;4.10;;;1.35;;
22490;SDS011;11412;50.802;4.350;2023-08-01T14:07:17;5.43;;;1.30;;
22490;SDS011;11412;50.802;4.350;2023-08-01T14:09:43;4.35;;;1.30;;
22490;SDS011;11412;50.802;4.350;2023-08-01T14:12:08;2.42;;;1.27;;
22490;SDS011;11412;50.802;4.350;2023-08-01T14:14:34;4.25;;;1.95;;
22490;SDS011;11412;50.802;4.350;2023-08-01T14:17:00;2.03;;;1.17;;
22490;SDS011;11412;50.802;4.350;2023-08-01T14:19:26;5.70;;;1.40;;
22490;SDS011;11412;50.802;4.350;2023-08-01T14:21:55;4.10;;;1.20;;
22490;SDS011;11412;50.802;4.350;2023-08-01T14:24:21;3.90;;;1.60;;
22490;SDS011;11412;50.802;4.350;2023-08-01T14:26:47;14.98;;;5.55;;
22490;SDS011;11412;50.802;4.350;2023-08-01T14:29:13;34.45;;;13.32;;
22490;SDS011;11412;50.802;4.350;2023-08-01T14:31:39;4.05;;;1.42;;
22490;SDS011;11412;50.802;4.350;2023-08-01T14:34:05;6.47;;;1.70;;
22490;SDS011;11412;50.802;4.350;2023-08-01T14:36:30;17.35;;;5.25;;
22490;SDS011;11412;50.802;4.350;2023-08-01T14:38:56;12.07;;;3.63;;
22490;SDS011;11412;50.802;4.350;2023-08-01T14:41:22;4.70;;;1.60;;
22490;SDS011;11412;50.802;4.350;2023-08-01T14:43:48;6.07;;;2.05;;
22490;SDS011;11412;50.802;4.350;2023-08-01T14:46:13;3.85;;;1.65;;
22490;SDS011;11412;50.802;4.350;2023-08-01T14:48:39;8.57;;;3.08;;
22490;SDS011;11412;50.802;4.350;2023-08-01T14:51:06;5.20;;;2.00;;
22490;SDS011;11412;50.802;4.350;2023-08-01T14:53:32;5.90;;;1.90;;